sensor_id;sensor_type;location;lat;lon;timestamp;P1;durP1;ratioP1;P2;durP2;ratioP2
22103;SDS011;11218;48.886;9.426;2022-10-16T00:01:40;36.28;;;28.05;;
22103;SDS011;11218;48.886;9.426;2022-10-16T00:04:09;42.90;;;38.30;;
22103;SDS011;11218;48.886;9.426;2022-10-16T00:06:37;32.70;;;29.17;;
22103;SDS011;11218;48.886;9.426;2022-10-16T00:09:05;55.85;;;49.15;;
22103;SDS011;11218;48.886;9.426;2022-10-16T00:11:35;76.10;;;62.60;;
22103;SDS011;11218;48.886;9.426;2022-10-16T00:14:08;106.38;;;86.75;;
22103;SDS011;11218;48.886;9.426;2022-10-16T00:16:38;152.60;;;107.15;;
22103;SDS011;11218;48.886;9.426;2022-10-16T00:19:06;157.50;;;109.72;;
22103;SDS011;11218;48.886;9.426;2022-10-16T00:21:34;219.85;;;129.52;;
22103;SDS011;11218;48.886;9.426;2022-10-16T00:24:03;232.20;;;132.40;;
22103;SDS011;11218;48.886;9.426;2022-10-16T00:26:35;236.02;;;133.55;;
22103;SDS011;11218;48.886;9.426;2022-10-16T00:29:04;312.88;;;152.38;;
22103;SDS011;11218;48.886;9.426;2022-10-16T00:31:34;271.80;;;145.00;;
22103;SDS011;11218;48.886;9.426;2022-10-16T00:34:02;305.02;;;151.10;;
22103;SDS011;11218;48.886;9.426;2022-10-16T00:36:30;388.70;;;162.98;;
22103;SDS011;11218;48.886;9.426;2022-10-16T00:38:58;420.40;;;174.73;;
22103;SDS011;11218;48.886;9.426;2022-10-16T00:41:28;437.15;;;181.52;;
22103;SDS011;11218;48.886;9.426;2022-10-16T00:43:57;452.92;;;185.35;;
22103;SDS011;11218;48.886;9.426;2022-10-16T00:46:27;454.17;;;179.98;;
22103;SDS011;11218;48.886;9.426;2022-10-16T00:49:00;435.45;;;174.10;;
22103;SDS011;11218;48.886;9.426;2022-10-16T00:51:32;474.58;;;184.80;;
22103;SDS011;11218;48.886;9.426;2022-10-16T00:54:02;492.00;;;188.73;;
22103;SDS011;11218;48.886;9.426;2022-10-16T00:56:32;504.45;;;185.73;;
22103;SDS011;11218;48.886;9.426;2022-10-16T00:59:02;522.13;;;197.55;;
22103;SDS011;11218;48.886;9.426;2022-10-16T01:01:34;532.00;;;200.90;;
22103;SDS011;11218;48.886;9.426;2022-10-16T01:04:03;544.28;;;203.43;;
22103;SDS011;11218;48.886;9.426;2022-10-16T01:06:33;560.88;;;201.25;;
22103;SDS011;11218;48.886;9.426;2022-10-16T01:09:11;546.38;;;203.90;;
22103;SDS011;11218;48.886;9.426;2022-10-16T01:11:45;550.70;;;196.52;;
22103;SDS011;11218;48.886;9.426;2022-10-16T01:14:24;537.38;;;198.35;;
22103;SDS011;11218;48.886;9.426;2022-10-16T01:17:01;538.65;;;196.93;;
22103;SDS011;11218;48.886;9.426;2022-10-16T01:19:44;554.90;;;204.35;;
22103;SDS011;11218;48.886;9.426;2022-10-16T01:22:24;547.58;;;198.10;;
22103;SDS011;11218;48.886;9.426;2022-10-16T01:24:58;540.00;;;197.48;;
22103;SDS011;11218;48.886;9.426;2022-10-16T01:27:34;563.10;;;199.55;;
22103;SDS011;11218;48.886;9.426;2022-10-16T01:30:04;565.03;;;206.45;;
22103;SDS011;11218;48.886;9.426;2022-10-16T01:32:41;560.33;;;203.00;;
22103;SDS011;11218;48.886;9.426;2022-10-16T01:35:16;569.08;;;201.90;;
22103;SDS011;11218;48.886;9.426;2022-10-16T01:37:50;571.78;;;200.45;;
22103;SDS011;11218;48.886;9.426;2022-10-16T01:40:22;551.15;;;204.00;;
22103;SDS011;11218;48.886;9.426;2022-10-16T01:42:56;556.47;;;203.95;;
22103;SDS011;11218;48.886;9.426;2022-10-16T01:45:27;557.28;;;195.52;;
22103;SDS011;11218;48.886;9.426;2022-10-16T01:47:57;577.05;;;200.63;;
22103;SDS011;11218;48.886;9.426;2022-10-16T01:50:30;586.92;;;199.25;;
22103;SDS011;11218;48.886;9.426;2022-10-16T01:53:00;585.35;;;203.13;;
22103;SDS011;11218;48.886;9.426;2022-10-16T01:55:31;589.65;;;204.38;;
22103;SDS011;11218;48.886;9.426;2022-10-16T01:58:05;592.53;;;209.10;;
22103;SDS011;11218;48.886;9.426;2022-10-16T02:00:36;573.03;;;205.13;;
22103;SDS011;11218;48.886;9.426;2022-10-16T02:03:06;531.13;;;192.00;;
22103;SDS011;11218;48.886;9.426;2022-10-16T02:05:37;474.15;;;180.07;;
22103;SDS011;11218;48.886;9.426;2022-10-16T02:08:09;504.98;;;187.10;;
22103;SDS011;11218;48.886;9.426;2022-10-16T02:10:38;519.85;;;195.60;;
22103;SDS011;11218;48.886;9.426;2022-10-16T02:13:08;521.25;;;192.55;;
22103;SDS011;11218;48.886;9.426;2022-10-16T02:15:39;524.53;;;193.75;;
22103;SDS011;11218;48.886;9.426;2022-10-16T02:18:07;525.17;;;197.88;;
22103;SDS011;11218;48.886;9.426;2022-10-16T02:20:42;536.83;;;202.43;;
22103;SDS011;11218;48.886;9.426;2022-10-16T02:23:14;506.00;;;192.00;;
22103;SDS011;11218;48.886;9.426;2022-10-16T02:25:49;503.50;;;188.13;;
22103;SDS011;11218;48.886;9.426;2022-10-16T02:28:22;553.90;;;203.90;;
22103;SDS011;11218;48.886;9.426;2022-10-16T02:30:56;556.80;;;202.48;;
22103;SDS011;11218;48.886;9.426;2022-10-16T02:33:27;514.10;;;192.98;;
22103;SDS011;11218;48.886;9.426;2022-10-16T02:35:56;522.53;;;194.10;;
22103;SDS011;11218;48.886;9.426;2022-10-16T02:38:25;573.75;;;205.07;;
22103;SDS011;11218;48.886;9.426;2022-10-16T02:40:54;563.60;;;203.38;;
22103;SDS011;11218;48.886;9.426;2022-10-16T02:43:25;585.03;;;209.38;;
22103;SDS011;11218;48.886;9.426;2022-10-16T02:45:54;575.80;;;203.48;;
22103;SDS011;11218;48.886;9.426;2022-10-16T02:48:22;591.03;;;204.95;;
22103;SDS011;11218;48.886;9.426;2022-10-16T02:50:50;583.60;;;207.02;;
22103;SDS011;11218;48.886;9.426;2022-10-16T02:53:18;581.03;;;209.45;;
22103;SDS011;11218;48.886;9.426;2022-10-16T02:55:46;582.00;;;203.65;;
22103;SDS011;11218;48.886;9.426;2022-10-16T02:58:14;558.75;;;214.05;;
22103;SDS011;11218;48.886;9.426;2022-10-16T03:00:44;531.08;;;195.27;;
22103;SDS011;11218;48.886;9.426;2022-10-16T03:03:12;539.72;;;202.50;;
22103;SDS011;11218;48.886;9.426;2022-10-16T03:05:40;517.60;;;201.07;;
22103;SDS011;11218;48.886;9.426;2022-10-16T03:08:12;525.25;;;202.15;;
22103;SDS011;11218;48.886;9.426;2022-10-16T03:10:40;488.08;;;187.00;;
22103;SDS011;11218;48.886;9.426;2022-10-16T03:13:08;495.88;;;198.40;;
22103;SDS011;11218;48.886;9.426;2022-10-16T03:15:36;511.73;;;197.93;;
22103;SDS011;11218;48.886;9.426;2022-10-16T03:18:05;440.20;;;179.52;;
22103;SDS011;11218;48.886;9.426;2022-10-16T03:20:33;470.60;;;186.73;;
22103;SDS011;11218;48.886;9.426;2022-10-16T03:23:01;482.88;;;186.32;;
22103;SDS011;11218;48.886;9.426;2022-10-16T03:25:30;472.02;;;184.90;;
22103;SDS011;11218;48.886;9.426;2022-10-16T03:27:57;448.80;;;181.88;;
22103;SDS011;11218;48.886;9.426;2022-10-16T03:30:26;485.13;;;189.65;;
22103;SDS011;11218;48.886;9.426;2022-10-16T03:32:54;436.15;;;175.32;;
22103;SDS011;11218;48.886;9.426;2022-10-16T03:35:23;422.58;;;172.23;;
22103;SDS011;11218;48.886;9.426;2022-10-16T03:37:52;405.17;;;170.13;;
22103;SDS011;11218;48.886;9.426;2022-10-16T03:40:20;411.65;;;172.23;;
22103;SDS011;11218;48.886;9.426;2022-10-16T03:42:48;412.77;;;172.13;;
22103;SDS011;11218;48.886;9.426;2022-10-16T03:45:16;428.38;;;175.65;;
22103;SDS011;11218;48.886;9.426;2022-10-16T03:47:44;425.98;;;172.45;;
22103;SDS011;11218;48.886;9.426;2022-10-16T03:50:12;454.33;;;187.27;;
22103;SDS011;11218;48.886;9.426;2022-10-16T03:52:42;426.73;;;175.25;;
22103;SDS011;11218;48.886;9.426;2022-10-16T03:55:10;448.58;;;175.43;;
22103;SDS011;11218;48.886;9.426;2022-10-16T03:57:38;418.20;;;173.98;;
22103;SDS011;11218;48.886;9.426;2022-10-16T04:00:06;399.77;;;173.05;;
22103;SDS011;11218;48.886;9.426;2022-10-16T04:02:36;414.30;;;172.88;;
22103;SDS011;11218;48.886;9.426;2022-10-16T04:05:04;434.20;;;180.02;;
22103;SDS011;11218;48.886;9.426;2022-10-16T04:07:32;410.15;;;170.00;;
22103;SDS011;11218;48.886;9.426;2022-10-16T04:10:02;324.25;;;148.98;;
22103;SDS011;11218;48.886;9.426;2022-10-16T04:12:31;550.67;;;200.02;;
22103;SDS011;11218;48.886;9.426;2022-10-16T04:14:59;530.95;;;192.48;;
22103;SDS011;11218;48.886;9.426;2022-10-16T04:17:27;522.92;;;189.85;;
22103;SDS011;11218;48.886;9.426;2022-10-16T04:19:55;516.90;;;192.45;;
22103;SDS011;11218;48.886;9.426;2022-10-16T04:22:23;536.70;;;199.27;;
22103;SDS011;11218;48.886;9.426;2022-10-16T04:24:52;497.02;;;192.82;;
22103;SDS011;11218;48.886;9.426;2022-10-16T04:27:22;505.98;;;189.63;;
22103;SDS011;11218;48.886;9.426;2022-10-16T04:29:52;508.58;;;190.50;;
22103;SDS011;11218;48.886;9.426;2022-10-16T04:32:20;481.75;;;182.77;;
22103;SDS011;11218;48.886;9.426;2022-10-16T04:34:48;479.40;;;186.02;;
22103;SDS011;11218;48.886;9.426;2022-10-16T04:37:16;436.13;;;173.23;;
22103;SDS011;11218;48.886;9.426;2022-10-16T04:39:46;446.88;;;173.60;;
22103;SDS011;11218;48.886;9.426;2022-10-16T04:42:15;506.05;;;187.15;;
22103;SDS011;11218;48.886;9.426;2022-10-16T04:44:44;495.52;;;184.80;;
22103;SDS011;11218;48.886;9.426;2022-10-16T04:47:17;509.20;;;189.23;;
22103;SDS011;11218;48.886;9.426;2022-10-16T04:49:45;526.95;;;193.15;;
22103;SDS011;11218;48.886;9.426;2022-10-16T04:52:13;488.15;;;188.15;;
22103;SDS011;11218;48.886;9.426;2022-10-16T04:54:41;448.05;;;171.48;;
22103;SDS011;11218;48.886;9.426;2022-10-16T04:57:11;447.00;;;175.00;;
22103;SDS011;11218;48.886;9.426;2022-10-16T04:59:39;460.98;;;178.30;;
22103;SDS011;11218;48.886;9.426;2022-10-16T05:02:08;460.92;;;175.25;;
22103;SDS011;11218;48.886;9.426;2022-10-16T05:04:36;487.50;;;184.30;;
22103;SDS011;11218;48.886;9.426;2022-10-16T05:07:05;523.50;;;189.95;;
22103;SDS011;11218;48.886;9.426;2022-10-16T05:09:32;439.67;;;170.60;;
22103;SDS011;11218;48.886;9.426;2022-10-16T05:12:01;467.13;;;178.18;;
22103;SDS011;11218;48.886;9.426;2022-10-16T05:14:29;467.48;;;171.63;;
22103;SDS011;11218;48.886;9.426;2022-10-16T05:16:59;471.88;;;181.40;;
22103;SDS011;11218;48.886;9.426;2022-10-16T05:19:28;485.38;;;178.95;;
22103;SDS011;11218;48.886;9.426;2022-10-16T05:21:56;513.10;;;186.88;;
22103;SDS011;11218;48.886;9.426;2022-10-16T05:24:24;510.48;;;185.30;;
22103;SDS011;11218;48.886;9.426;2022-10-16T05:26:52;505.00;;;184.38;;
22103;SDS011;11218;48.886;9.426;2022-10-16T05:29:21;466.95;;;179.80;;
22103;SDS011;11218;48.886;9.426;2022-10-16T05:31:50;449.42;;;173.85;;
22103;SDS011;11218;48.886;9.426;2022-10-16T05:34:18;422.88;;;168.13;;
22103;SDS011;11218;48.886;9.426;2022-10-16T05:36:48;493.48;;;181.85;;
22103;SDS011;11218;48.886;9.426;2022-10-16T05:39:17;485.48;;;186.63;;
22103;SDS011;11218;48.886;9.426;2022-10-16T05:41:45;494.70;;;187.98;;
22103;SDS011;11218;48.886;9.426;2022-10-16T05:44:13;482.95;;;175.65;;
22103;SDS011;11218;48.886;9.426;2022-10-16T05:46:42;472.80;;;181.07;;
22103;SDS011;11218;48.886;9.426;2022-10-16T05:49:10;490.52;;;183.27;;
22103;SDS011;11218;48.886;9.426;2022-10-16T05:51:37;476.80;;;185.50;;
22103;SDS011;11218;48.886;9.426;2022-10-16T05:54:07;439.85;;;172.63;;
22103;SDS011;11218;48.886;9.426;2022-10-16T05:56:35;445.83;;;175.73;;
22103;SDS011;11218;48.886;9.426;2022-10-16T05:59:03;435.17;;;168.52;;
22103;SDS011;11218;48.886;9.426;2022-10-16T06:01:32;461.08;;;177.65;;
22103;SDS011;11218;48.886;9.426;2022-10-16T06:04:00;474.17;;;178.00;;
22103;SDS011;11218;48.886;9.426;2022-10-16T06:06:29;481.60;;;183.38;;
22103;SDS011;11218;48.886;9.426;2022-10-16T06:08:57;473.58;;;186.65;;
22103;SDS011;11218;48.886;9.426;2022-10-16T06:11:28;424.52;;;172.48;;
22103;SDS011;11218;48.886;9.426;2022-10-16T06:13:58;438.75;;;175.13;;
22103;SDS011;11218;48.886;9.426;2022-10-16T06:16:29;427.92;;;174.32;;
22103;SDS011;11218;48.886;9.426;2022-10-16T06:18:57;393.95;;;164.80;;
22103;SDS011;11218;48.886;9.426;2022-10-16T06:21:26;389.05;;;164.15;;
22103;SDS011;11218;48.886;9.426;2022-10-16T06:23:56;413.23;;;167.30;;
22103;SDS011;11218;48.886;9.426;2022-10-16T06:26:25;439.95;;;178.52;;
22103;SDS011;11218;48.886;9.426;2022-10-16T06:28:56;451.15;;;171.52;;
22103;SDS011;11218;48.886;9.426;2022-10-16T06:31:26;427.42;;;173.13;;
22103;SDS011;11218;48.886;9.426;2022-10-16T06:33:57;427.95;;;171.30;;
22103;SDS011;11218;48.886;9.426;2022-10-16T06:36:25;432.95;;;169.40;;
22103;SDS011;11218;48.886;9.426;2022-10-16T06:38:53;453.95;;;174.25;;
22103;SDS011;11218;48.886;9.426;2022-10-16T06:41:22;444.83;;;174.82;;
22103;SDS011;11218;48.886;9.426;2022-10-16T06:43:51;454.70;;;176.80;;
22103;SDS011;11218;48.886;9.426;2022-10-16T06:46:20;428.08;;;170.07;;
22103;SDS011;11218;48.886;9.426;2022-10-16T06:48:50;438.17;;;178.95;;
22103;SDS011;11218;48.886;9.426;2022-10-16T06:51:18;423.95;;;174.48;;
22103;SDS011;11218;48.886;9.426;2022-10-16T06:53:48;441.30;;;177.50;;
22103;SDS011;11218;48.886;9.426;2022-10-16T06:56:32;444.80;;;182.65;;
22103;SDS011;11218;48.886;9.426;2022-10-16T06:59:02;413.08;;;170.30;;
22103;SDS011;11218;48.886;9.426;2022-10-16T07:01:30;432.40;;;171.55;;
22103;SDS011;11218;48.886;9.426;2022-10-16T07:04:00;430.92;;;177.02;;
22103;SDS011;11218;48.886;9.426;2022-10-16T07:06:30;427.23;;;170.05;;
22103;SDS011;11218;48.886;9.426;2022-10-16T07:09:00;437.65;;;171.13;;
22103;SDS011;11218;48.886;9.426;2022-10-16T07:11:30;504.02;;;200.23;;
22103;SDS011;11218;48.886;9.426;2022-10-16T07:13:58;441.98;;;177.63;;
22103;SDS011;11218;48.886;9.426;2022-10-16T07:16:28;442.38;;;176.27;;
22103;SDS011;11218;48.886;9.426;2022-10-16T07:18:58;459.35;;;178.93;;
22103;SDS011;11218;48.886;9.426;2022-10-16T07:21:28;483.73;;;181.38;;
22103;SDS011;11218;48.886;9.426;2022-10-16T07:24:02;483.90;;;186.02;;
22103;SDS011;11218;48.886;9.426;2022-10-16T07:26:32;423.92;;;172.57;;
22103;SDS011;11218;48.886;9.426;2022-10-16T07:29:02;420.73;;;178.02;;
22103;SDS011;11218;48.886;9.426;2022-10-16T07:31:32;400.60;;;169.05;;
22103;SDS011;11218;48.886;9.426;2022-10-16T07:34:00;422.30;;;174.23;;
22103;SDS011;11218;48.886;9.426;2022-10-16T07:36:28;427.42;;;175.73;;
22103;SDS011;11218;48.886;9.426;2022-10-16T07:38:56;430.73;;;179.68;;
22103;SDS011;11218;48.886;9.426;2022-10-16T07:41:25;453.70;;;177.70;;
22103;SDS011;11218;48.886;9.426;2022-10-16T07:44:08;486.40;;;188.68;;
22103;SDS011;11218;48.886;9.426;2022-10-16T07:46:39;479.40;;;187.88;;
22103;SDS011;11218;48.886;9.426;2022-10-16T07:49:08;477.52;;;188.13;;
22103;SDS011;11218;48.886;9.426;2022-10-16T07:51:36;473.75;;;185.05;;
22103;SDS011;11218;48.886;9.426;2022-10-16T07:54:05;470.60;;;191.57;;
22103;SDS011;11218;48.886;9.426;2022-10-16T07:56:33;460.90;;;190.75;;
22103;SDS011;11218;48.886;9.426;2022-10-16T07:59:05;460.02;;;189.35;;
22103;SDS011;11218;48.886;9.426;2022-10-16T08:01:35;429.85;;;174.13;;
22103;SDS011;11218;48.886;9.426;2022-10-16T08:04:04;439.48;;;175.70;;
22103;SDS011;11218;48.886;9.426;2022-10-16T08:06:43;419.45;;;175.82;;
22103;SDS011;11218;48.886;9.426;2022-10-16T08:09:11;367.75;;;161.57;;
22103;SDS011;11218;48.886;9.426;2022-10-16T08:11:39;355.48;;;163.95;;
22103;SDS011;11218;48.886;9.426;2022-10-16T08:14:09;325.98;;;154.45;;
22103;SDS011;11218;48.886;9.426;2022-10-16T08:16:37;254.15;;;138.45;;
22103;SDS011;11218;48.886;9.426;2022-10-16T08:19:09;269.05;;;144.52;;
22103;SDS011;11218;48.886;9.426;2022-10-16T08:21:37;280.45;;;143.00;;
22103;SDS011;11218;48.886;9.426;2022-10-16T08:24:05;364.80;;;168.05;;
22103;SDS011;11218;48.886;9.426;2022-10-16T08:26:33;354.65;;;156.75;;
22103;SDS011;11218;48.886;9.426;2022-10-16T08:29:01;365.65;;;168.38;;
22103;SDS011;11218;48.886;9.426;2022-10-16T08:31:29;371.83;;;167.18;;
22103;SDS011;11218;48.886;9.426;2022-10-16T08:34:00;384.05;;;174.63;;
22103;SDS011;11218;48.886;9.426;2022-10-16T08:36:38;370.60;;;164.43;;
22103;SDS011;11218;48.886;9.426;2022-10-16T08:39:06;371.05;;;168.40;;
22103;SDS011;11218;48.886;9.426;2022-10-16T08:44:30;351.33;;;163.60;;
22103;SDS011;11218;48.886;9.426;2022-10-16T08:47:25;393.63;;;175.68;;
22103;SDS011;11218;48.886;9.426;2022-10-16T08:50:17;391.55;;;179.65;;
22103;SDS011;11218;48.886;9.426;2022-10-16T08:52:51;337.75;;;164.10;;
22103;SDS011;11218;48.886;9.426;2022-10-16T08:55:25;351.33;;;174.85;;
22103;SDS011;11218;48.886;9.426;2022-10-16T08:57:59;344.92;;;168.25;;
22103;SDS011;11218;48.886;9.426;2022-10-16T09:00:28;358.45;;;173.80;;
22103;SDS011;11218;48.886;9.426;2022-10-16T09:02:59;363.83;;;179.25;;
22103;SDS011;11218;48.886;9.426;2022-10-16T09:05:43;386.95;;;190.10;;
22103;SDS011;11218;48.886;9.426;2022-10-16T09:08:45;455.23;;;211.35;;
22103;SDS011;11218;48.886;9.426;2022-10-16T09:11:25;388.95;;;188.40;;
22103;SDS011;11218;48.886;9.426;2022-10-16T09:14:07;394.05;;;184.77;;
22103;SDS011;11218;48.886;9.426;2022-10-16T09:16:51;379.77;;;183.75;;
22103;SDS011;11218;48.886;9.426;2022-10-16T09:19:26;373.30;;;183.80;;
22103;SDS011;11218;48.886;9.426;2022-10-16T09:21:59;368.23;;;181.93;;
22103;SDS011;11218;48.886;9.426;2022-10-16T09:24:31;303.90;;;166.95;;
22103;SDS011;11218;48.886;9.426;2022-10-16T09:26:59;297.27;;;162.10;;
22103;SDS011;11218;48.886;9.426;2022-10-16T09:29:27;334.95;;;174.30;;
22103;SDS011;11218;48.886;9.426;2022-10-16T09:31:54;333.13;;;177.40;;
22103;SDS011;11218;48.886;9.426;2022-10-16T09:34:27;322.55;;;175.73;;
22103;SDS011;11218;48.886;9.426;2022-10-16T09:37:00;332.10;;;173.10;;
22103;SDS011;11218;48.886;9.426;2022-10-16T09:39:43;315.05;;;175.30;;
22103;SDS011;11218;48.886;9.426;2022-10-16T09:42:14;339.95;;;180.43;;
22103;SDS011;11218;48.886;9.426;2022-10-16T09:44:46;350.20;;;178.55;;
22103;SDS011;11218;48.886;9.426;2022-10-16T09:47:17;346.67;;;187.52;;
22103;SDS011;11218;48.886;9.426;2022-10-16T09:49:52;374.88;;;196.25;;
22103;SDS011;11218;48.886;9.426;2022-10-16T09:52:27;338.83;;;187.13;;
22103;SDS011;11218;48.886;9.426;2022-10-16T09:55:00;337.00;;;182.02;;
22103;SDS011;11218;48.886;9.426;2022-10-16T09:57:33;328.83;;;178.68;;
22103;SDS011;11218;48.886;9.426;2022-10-16T10:00:04;345.48;;;191.80;;
22103;SDS011;11218;48.886;9.426;2022-10-16T10:02:36;359.38;;;196.63;;
22103;SDS011;11218;48.886;9.426;2022-10-16T10:05:06;351.60;;;194.77;;
22103;SDS011;11218;48.886;9.426;2022-10-16T10:07:52;326.58;;;181.18;;
22103;SDS011;11218;48.886;9.426;2022-10-16T10:10:24;380.05;;;209.38;;
22103;SDS011;11218;48.886;9.426;2022-10-16T10:12:59;377.42;;;207.25;;
22103;SDS011;11218;48.886;9.426;2022-10-16T10:15:44;350.40;;;187.30;;
22103;SDS011;11218;48.886;9.426;2022-10-16T10:18:16;348.02;;;199.13;;
22103;SDS011;11218;48.886;9.426;2022-10-16T10:20:46;346.73;;;198.45;;
22103;SDS011;11218;48.886;9.426;2022-10-16T10:23:25;368.58;;;211.13;;
22103;SDS011;11218;48.886;9.426;2022-10-16T10:25:57;395.98;;;213.55;;
22103;SDS011;11218;48.886;9.426;2022-10-16T10:31:38;373.42;;;203.23;;
22103;SDS011;11218;48.886;9.426;2022-10-16T10:34:19;422.15;;;221.35;;
22103;SDS011;11218;48.886;9.426;2022-10-16T10:36:59;422.75;;;229.52;;
22103;SDS011;11218;48.886;9.426;2022-10-16T10:39:40;467.02;;;244.68;;
22103;SDS011;11218;48.886;9.426;2022-10-16T10:42:24;436.90;;;227.25;;
22103;SDS011;11218;48.886;9.426;2022-10-16T10:45:03;439.67;;;236.68;;
22103;SDS011;11218;48.886;9.426;2022-10-16T10:47:52;452.63;;;238.35;;
22103;SDS011;11218;48.886;9.426;2022-10-16T10:50:33;459.35;;;235.07;;
22103;SDS011;11218;48.886;9.426;2022-10-16T10:53:09;487.27;;;258.02;;
22103;SDS011;11218;48.886;9.426;2022-10-16T10:55:48;479.42;;;257.35;;
22103;SDS011;11218;48.886;9.426;2022-10-16T11:01:29;463.02;;;249.38;;
22103;SDS011;11218;48.886;9.426;2022-10-16T11:04:10;475.05;;;252.80;;
22103;SDS011;11218;48.886;9.426;2022-10-16T11:06:54;486.65;;;247.23;;
22103;SDS011;11218;48.886;9.426;2022-10-16T11:09:27;491.25;;;257.88;;
22103;SDS011;11218;48.886;9.426;2022-10-16T11:12:00;459.48;;;248.88;;
22103;SDS011;11218;48.886;9.426;2022-10-16T11:14:46;438.08;;;250.02;;
22103;SDS011;11218;48.886;9.426;2022-10-16T11:17:23;458.60;;;250.68;;
22103;SDS011;11218;48.886;9.426;2022-10-16T11:19:55;448.80;;;252.07;;
22103;SDS011;11218;48.886;9.426;2022-10-16T11:22:29;472.15;;;254.13;;
22103;SDS011;11218;48.886;9.426;2022-10-16T11:25:02;432.70;;;244.02;;
22103;SDS011;11218;48.886;9.426;2022-10-16T11:27:44;479.50;;;265.50;;
22103;SDS011;11218;48.886;9.426;2022-10-16T11:30:19;466.48;;;251.80;;
22103;SDS011;11218;48.886;9.426;2022-10-16T11:33:03;490.70;;;261.65;;
22103;SDS011;11218;48.886;9.426;2022-10-16T11:35:53;510.98;;;268.45;;
22103;SDS011;11218;48.886;9.426;2022-10-16T11:38:28;502.88;;;264.27;;
22103;SDS011;11218;48.886;9.426;2022-10-16T11:41:02;510.48;;;270.83;;
22103;SDS011;11218;48.886;9.426;2022-10-16T11:43:42;515.55;;;267.65;;
22103;SDS011;11218;48.886;9.426;2022-10-16T11:46:17;533.90;;;275.65;;
22103;SDS011;11218;48.886;9.426;2022-10-16T11:48:50;517.85;;;275.50;;
22103;SDS011;11218;48.886;9.426;2022-10-16T11:51:25;528.83;;;272.17;;
22103;SDS011;11218;48.886;9.426;2022-10-16T11:54:02;484.52;;;265.63;;
22103;SDS011;11218;48.886;9.426;2022-10-16T11:56:38;492.83;;;264.83;;
22103;SDS011;11218;48.886;9.426;2022-10-16T11:59:11;556.05;;;285.45;;
22103;SDS011;11218;48.886;9.426;2022-10-16T12:01:46;557.97;;;284.60;;
22103;SDS011;11218;48.886;9.426;2022-10-16T12:04:22;543.55;;;277.83;;
22103;SDS011;11218;48.886;9.426;2022-10-16T12:07:01;529.28;;;274.00;;
22103;SDS011;11218;48.886;9.426;2022-10-16T12:09:34;551.97;;;281.85;;
22103;SDS011;11218;48.886;9.426;2022-10-16T12:12:05;551.15;;;290.40;;
22103;SDS011;11218;48.886;9.426;2022-10-16T12:14:59;560.67;;;281.60;;
22103;SDS011;11218;48.886;9.426;2022-10-16T12:17:45;552.63;;;281.60;;
22103;SDS011;11218;48.886;9.426;2022-10-16T12:20:22;537.85;;;282.60;;
22103;SDS011;11218;48.886;9.426;2022-10-16T12:22:53;528.60;;;281.35;;
22103;SDS011;11218;48.886;9.426;2022-10-16T12:25:24;513.28;;;273.27;;
22103;SDS011;11218;48.886;9.426;2022-10-16T12:27:59;499.67;;;268.15;;
22103;SDS011;11218;48.886;9.426;2022-10-16T12:30:30;486.65;;;268.08;;
22103;SDS011;11218;48.886;9.426;2022-10-16T12:33:03;489.38;;;279.15;;
22103;SDS011;11218;48.886;9.426;2022-10-16T12:35:43;456.00;;;255.82;;
22103;SDS011;11218;48.886;9.426;2022-10-16T12:38:15;479.48;;;263.23;;
22103;SDS011;11218;48.886;9.426;2022-10-16T12:40:45;480.40;;;272.08;;
22103;SDS011;11218;48.886;9.426;2022-10-16T12:43:26;453.45;;;264.70;;
22103;SDS011;11218;48.886;9.426;2022-10-16T12:46:18;410.88;;;243.75;;
22103;SDS011;11218;48.886;9.426;2022-10-16T12:48:51;443.77;;;262.67;;
22103;SDS011;11218;48.886;9.426;2022-10-16T12:51:36;414.90;;;249.38;;
22103;SDS011;11218;48.886;9.426;2022-10-16T12:54:04;440.25;;;249.75;;
22103;SDS011;11218;48.886;9.426;2022-10-16T12:56:41;397.17;;;247.85;;
22103;SDS011;11218;48.886;9.426;2022-10-16T12:59:28;403.08;;;239.38;;
22103;SDS011;11218;48.886;9.426;2022-10-16T13:02:14;368.40;;;233.05;;
22103;SDS011;11218;48.886;9.426;2022-10-16T13:05:00;407.95;;;248.32;;
22103;SDS011;11218;48.886;9.426;2022-10-16T13:07:50;357.50;;;223.18;;
22103;SDS011;11218;48.886;9.426;2022-10-16T13:10:27;373.60;;;233.30;;
22103;SDS011;11218;48.886;9.426;2022-10-16T13:13:18;371.13;;;224.38;;
22103;SDS011;11218;48.886;9.426;2022-10-16T13:15:59;357.73;;;228.82;;
22103;SDS011;11218;48.886;9.426;2022-10-16T13:18:36;322.70;;;219.85;;
22103;SDS011;11218;48.886;9.426;2022-10-16T13:21:18;346.48;;;226.65;;
22103;SDS011;11218;48.886;9.426;2022-10-16T13:24:02;407.52;;;239.23;;
22103;SDS011;11218;48.886;9.426;2022-10-16T13:26:41;429.90;;;248.90;;
22103;SDS011;11218;48.886;9.426;2022-10-16T13:29:15;377.40;;;231.02;;
22103;SDS011;11218;48.886;9.426;2022-10-16T13:31:43;395.17;;;237.25;;
22103;SDS011;11218;48.886;9.426;2022-10-16T13:34:12;306.63;;;213.25;;
22103;SDS011;11218;48.886;9.426;2022-10-16T13:36:45;329.60;;;224.35;;
22103;SDS011;11218;48.886;9.426;2022-10-16T13:39:22;438.67;;;248.00;;
22103;SDS011;11218;48.886;9.426;2022-10-16T13:41:58;450.98;;;250.50;;
22103;SDS011;11218;48.886;9.426;2022-10-16T13:44:36;461.50;;;247.63;;
22103;SDS011;11218;48.886;9.426;2022-10-16T13:47:15;462.08;;;251.27;;
22103;SDS011;11218;48.886;9.426;2022-10-16T13:49:44;359.77;;;226.27;;
22103;SDS011;11218;48.886;9.426;2022-10-16T13:52:16;328.30;;;218.18;;
22103;SDS011;11218;48.886;9.426;2022-10-16T13:54:47;345.30;;;224.95;;
22103;SDS011;11218;48.886;9.426;2022-10-16T13:57:15;325.65;;;220.43;;
22103;SDS011;11218;48.886;9.426;2022-10-16T13:59:53;337.60;;;220.27;;
22103;SDS011;11218;48.886;9.426;2022-10-16T14:02:22;314.08;;;211.88;;
22103;SDS011;11218;48.886;9.426;2022-10-16T14:04:54;295.00;;;203.52;;
22103;SDS011;11218;48.886;9.426;2022-10-16T14:07:25;284.38;;;201.00;;
22103;SDS011;11218;48.886;9.426;2022-10-16T14:09:57;268.40;;;195.32;;
22103;SDS011;11218;48.886;9.426;2022-10-16T14:12:28;265.02;;;188.00;;
22103;SDS011;11218;48.886;9.426;2022-10-16T14:14:57;263.50;;;187.55;;
22103;SDS011;11218;48.886;9.426;2022-10-16T14:17:28;298.58;;;202.02;;
22103;SDS011;11218;48.886;9.426;2022-10-16T14:19:59;340.25;;;213.13;;
22103;SDS011;11218;48.886;9.426;2022-10-16T14:22:32;366.75;;;227.68;;
22103;SDS011;11218;48.886;9.426;2022-10-16T14:25:13;433.77;;;248.45;;
22103;SDS011;11218;48.886;9.426;2022-10-16T14:28:02;481.40;;;259.88;;
22103;SDS011;11218;48.886;9.426;2022-10-16T14:30:32;482.15;;;254.02;;
22103;SDS011;11218;48.886;9.426;2022-10-16T14:33:03;542.40;;;275.45;;
22103;SDS011;11218;48.886;9.426;2022-10-16T14:35:33;493.98;;;256.08;;